sensor_id;sensor_type;location;lat;lon;timestamp;pressure;altitude;pressure_sealevel;temperature
71428;BMP280;59246;59.102;37.928;2022-07-01T00:02:23;100433.00;;;16.83
71428;BMP280;59246;59.102;37.928;2022-07-01T00:04:49;100446.56;;;16.78
71428;BMP280;59246;59.102;37.928;2022-07-01T00:07:14;100439.91;;;16.75
71428;BMP280;59246;59.102;37.928;2022-07-01T00:09:41;100441.63;;;16.71
71428;BMP280;59246;59.102;37.928;2022-07-01T00:12:07;100447.28;;;16.70
71428;BMP280;59246;59.102;37.928;2022-07-01T00:14:33;100437.19;;;16.67
71428;BMP280;59246;59.102;37.928;2022-07-01T00:16:59;100439.38;;;16.65
71428;BMP280;59246;59.102;37.928;2022-07-01T00:19:25;100444.22;;;16.63
71428;BMP280;59246;59.102;37.928;2022-07-01T00:21:51;100445.69;;;16.60
71428;BMP280;59246;59.102;37.928;2022-07-01T00:24:17;100447.84;;;16.58
71428;BMP280;59246;59.102;37.928;2022-07-01T00:26:43;100455.44;;;16.56
71428;BMP280;59246;59.102;37.928;2022-07-01T00:29:09;100453.81;;;16.55
71428;BMP280;59246;59.102;37.928;2022-07-01T00:31:34;100454.94;;;16.54
71428;BMP280;59246;59.102;37.928;2022-07-01T00:34:01;100462.16;;;16.53
71428;BMP280;59246;59.102;37.928;2022-07-01T00:36:27;100463.25;;;16.52
71428;BMP280;59246;59.102;37.928;2022-07-01T00:38:53;100464.38;;;16.51
71428;BMP280;59246;59.102;37.928;2022-07-01T00:41:18;100468.44;;;16.49
71428;BMP280;59246;59.102;37.928;2022-07-01T00:43:44;100470.03;;;16.50
71428;BMP280;59246;59.102;37.928;2022-07-01T00:46:10;100475.09;;;16.51
71428;BMP280;59246;59.102;37.928;2022-07-01T00:48:36;100472.44;;;16.51
71428;BMP280;59246;59.102;37.928;2022-07-01T00:51:02;100480.13;;;16.53
71428;BMP280;59246;59.102;37.928;2022-07-01T00:53:28;100479.31;;;16.52
71428;BMP280;59246;59.102;37.928;2022-07-01T00:55:55;100479.22;;;16.57
71428;BMP280;59246;59.102;37.928;2022-07-01T00:58:21;100478.91;;;16.59
71428;BMP280;59246;59.102;37.928;2022-07-01T01:00:47;100481.59;;;16.59
71428;BMP280;59246;59.102;37.928;2022-07-01T01:03:12;100485.06;;;16.59
71428;BMP280;59246;59.102;37.928;2022-07-01T01:05:39;100480.50;;;16.60
71428;BMP280;59246;59.102;37.928;2022-07-01T01:08:08;100479.41;;;16.61
71428;BMP280;59246;59.102;37.928;2022-07-01T01:10:36;100479.06;;;16.63
71428;BMP280;59246;59.102;37.928;2022-07-01T01:13:02;100484.13;;;16.64
71428;BMP280;59246;59.102;37.928;2022-07-01T01:15:30;100478.47;;;16.66
71428;BMP280;59246;59.102;37.928;2022-07-01T01:17:56;100488.88;;;16.67
71428;BMP280;59246;59.102;37.928;2022-07-01T01:20:22;100497.41;;;16.69
71428;BMP280;59246;59.102;37.928;2022-07-01T01:22:48;100490.44;;;16.68
71428;BMP280;59246;59.102;37.928;2022-07-01T01:25:17;100495.22;;;16.71
71428;BMP280;59246;59.102;37.928;2022-07-01T01:27:44;100497.56;;;16.73
71428;BMP280;59246;59.102;37.928;2022-07-01T01:30:11;100509.28;;;16.77
71428;BMP280;59246;59.102;37.928;2022-07-01T01:32:38;100510.25;;;16.81
71428;BMP280;59246;59.102;37.928;2022-07-01T01:35:04;100505.69;;;16.81
71428;BMP280;59246;59.102;37.928;2022-07-01T01:37:30;100509.16;;;16.82
71428;BMP280;59246;59.102;37.928;2022-07-01T01:39:56;100519.75;;;16.87
71428;BMP280;59246;59.102;37.928;2022-07-01T01:42:22;100518.97;;;16.95
71428;BMP280;59246;59.102;37.928;2022-07-01T01:44:48;100516.66;;;17.02
71428;BMP280;59246;59.102;37.928;2022-07-01T01:47:14;100516.84;;;17.06
71428;BMP280;59246;59.102;37.928;2022-07-01T01:49:39;100519.81;;;17.05
71428;BMP280;59246;59.102;37.928;2022-07-01T01:52:05;100525.19;;;17.05
71428;BMP280;59246;59.102;37.928;2022-07-01T01:54:32;100514.47;;;17.05
71428;BMP280;59246;59.102;37.928;2022-07-01T01:56:58;100524.06;;;17.06
71428;BMP280;59246;59.102;37.928;2022-07-01T01:59:24;100528.66;;;17.05
71428;BMP280;59246;59.102;37.928;2022-07-01T02:01:49;100523.63;;;17.04
71428;BMP280;59246;59.102;37.928;2022-07-01T02:04:15;100530.38;;;17.01
71428;BMP280;59246;59.102;37.928;2022-07-01T02:06:41;100534.50;;;16.98
71428;BMP280;59246;59.102;37.928;2022-07-01T02:09:07;100533.97;;;16.96
71428;BMP280;59246;59.102;37.928;2022-07-01T02:11:32;100536.16;;;16.94
71428;BMP280;59246;59.102;37.928;2022-07-01T02:13:58;100535.88;;;16.96
71428;BMP280;59246;59.102;37.928;2022-07-01T02:16:23;100540.41;;;16.95
71428;BMP280;59246;59.102;37.928;2022-07-01T02:18:49;100543.72;;;16.92
71428;BMP280;59246;59.102;37.928;2022-07-01T02:21:15;100530.94;;;16.89
71428;BMP280;59246;59.102;37.928;2022-07-01T02:23:40;100539.28;;;16.88
71428;BMP280;59246;59.102;37.928;2022-07-01T02:26:06;100542.56;;;16.85
71428;BMP280;59246;59.102;37.928;2022-07-01T02:28:32;100549.03;;;16.84
71428;BMP280;59246;59.102;37.928;2022-07-01T02:30:58;100534.50;;;16.76
71428;BMP280;59246;59.102;37.928;2022-07-01T02:33:24;100543.94;;;16.73
71428;BMP280;59246;59.102;37.928;2022-07-01T02:35:50;100539.50;;;16.69
71428;BMP280;59246;59.102;37.928;2022-07-01T02:38:16;100545.47;;;16.66
71428;BMP280;59246;59.102;37.928;2022-07-01T02:40:42;100559.97;;;16.65
71428;BMP280;59246;59.102;37.928;2022-07-01T02:43:08;100554.59;;;16.65
71428;BMP280;59246;59.102;37.928;2022-07-01T02:45:33;100557.28;;;16.65
71428;BMP280;59246;59.102;37.928;2022-07-01T02:47:59;100566.09;;;16.65
71428;BMP280;59246;59.102;37.928;2022-07-01T02:50:27;100550.81;;;16.66
71428;BMP280;59246;59.102;37.928;2022-07-01T02:52:53;100571.66;;;16.69
71428;BMP280;59246;59.102;37.928;2022-07-01T02:55:18;100571.66;;;16.69
71428;BMP280;59246;59.102;37.928;2022-07-01T02:57:45;100571.66;;;16.69
71428;BMP280;59246;59.102;37.928;2022-07-01T03:00:12;100579.41;;;16.70
71428;BMP280;59246;59.102;37.928;2022-07-01T03:02:39;100572.16;;;16.71
71428;BMP280;59246;59.102;37.928;2022-07-01T03:05:05;100572.44;;;16.69
71428;BMP280;59246;59.102;37.928;2022-07-01T03:07:31;100573.75;;;16.72
71428;BMP280;59246;59.102;37.928;2022-07-01T03:09:57;100580.66;;;16.73
71428;BMP280;59246;59.102;37.928;2022-07-01T03:12:23;100584.00;;;16.78
71428;BMP280;59246;59.102;37.928;2022-07-01T03:15:00;100588.47;;;16.83
71428;BMP280;59246;59.102;37.928;2022-07-01T03:17:28;100582.19;;;16.88
71428;BMP280;59246;59.102;37.928;2022-07-01T03:19:54;100597.34;;;16.92
71428;BMP280;59246;59.102;37.928;2022-07-01T03:22:23;100597.53;;;16.96
71428;BMP280;59246;59.102;37.928;2022-07-01T03:24:50;100605.13;;;17.02
71428;BMP280;59246;59.102;37.928;2022-07-01T03:27:17;100602.34;;;17.08
71428;BMP280;59246;59.102;37.928;2022-07-01T03:29:43;100611.50;;;17.15
71428;BMP280;59246;59.102;37.928;2022-07-01T03:32:10;100605.72;;;17.22
71428;BMP280;59246;59.102;37.928;2022-07-01T03:34:40;100603.88;;;17.31
71428;BMP280;59246;59.102;37.928;2022-07-01T03:37:08;100601.53;;;17.38
71428;BMP280;59246;59.102;37.928;2022-07-01T03:39:35;100610.53;;;17.42
71428;BMP280;59246;59.102;37.928;2022-07-01T03:42:02;100609.47;;;17.44
71428;BMP280;59246;59.102;37.928;2022-07-01T03:44:28;100612.59;;;17.46
71428;BMP280;59246;59.102;37.928;2022-07-01T03:46:54;100615.16;;;17.51
71428;BMP280;59246;59.102;37.928;2022-07-01T03:49:19;100610.75;;;17.55
71428;BMP280;59246;59.102;37.928;2022-07-01T03:51:46;100611.72;;;17.59
71428;BMP280;59246;59.102;37.928;2022-07-01T03:54:11;100607.75;;;17.65
71428;BMP280;59246;59.102;37.928;2022-07-01T03:59:25;100616.84;;;17.78
71428;BMP280;59246;59.102;37.928;2022-07-01T04:01:52;100616.38;;;17.85
71428;BMP280;59246;59.102;37.928;2022-07-01T04:04:18;100637.72;;;17.90
71428;BMP280;59246;59.102;37.928;2022-07-01T04:06:44;100627.31;;;17.97
71428;BMP280;59246;59.102;37.928;2022-07-01T04:09:11;100629.84;;;18.02
71428;BMP280;59246;59.102;37.928;2022-07-01T04:11:38;100638.69;;;18.11
71428;BMP280;59246;59.102;37.928;2022-07-01T04:14:04;100652.63;;;18.22
71428;BMP280;59246;59.102;37.928;2022-07-01T04:16:30;100651.38;;;18.28
71428;BMP280;59246;59.102;37.928;2022-07-01T04:18:56;100652.31;;;18.32
71428;BMP280;59246;59.102;37.928;2022-07-01T04:21:21;100657.22;;;18.39
71428;BMP280;59246;59.102;37.928;2022-07-01T04:24:06;100658.34;;;18.38
71428;BMP280;59246;59.102;37.928;2022-07-01T04:26:32;100665.59;;;18.37
71428;BMP280;59246;59.102;37.928;2022-07-01T04:28:58;100665.09;;;18.44
71428;BMP280;59246;59.102;37.928;2022-07-01T04:31:24;100658.97;;;18.52
71428;BMP280;59246;59.102;37.928;2022-07-01T04:33:51;100666.72;;;18.54
71428;BMP280;59246;59.102;37.928;2022-07-01T04:36:17;100657.69;;;18.58
71428;BMP280;59246;59.102;37.928;2022-07-01T04:38:44;100661.66;;;18.61
71428;BMP280;59246;59.102;37.928;2022-07-01T04:41:09;100658.34;;;18.64
71428;BMP280;59246;59.102;37.928;2022-07-01T04:43:53;100669.44;;;18.62
71428;BMP280;59246;59.102;37.928;2022-07-01T04:46:19;100668.31;;;18.63
71428;BMP280;59246;59.102;37.928;2022-07-01T04:48:45;100671.16;;;18.67
71428;BMP280;59246;59.102;37.928;2022-07-01T04:51:11;100671.91;;;18.68
71428;BMP280;59246;59.102;37.928;2022-07-01T04:53:37;100675.88;;;18.70
71428;BMP280;59246;59.102;37.928;2022-07-01T04:56:03;100676.97;;;18.78
71428;BMP280;59246;59.102;37.928;2022-07-01T04:58:29;100676.84;;;18.83
71428;BMP280;59246;59.102;37.928;2022-07-01T05:00:55;100668.75;;;18.83
71428;BMP280;59246;59.102;37.928;2022-07-01T05:03:20;100672.72;;;18.85
71428;BMP280;59246;59.102;37.928;2022-07-01T05:05:46;100670.63;;;18.91
71428;BMP280;59246;59.102;37.928;2022-07-01T05:08:12;100673.50;;;18.95
71428;BMP280;59246;59.102;37.928;2022-07-01T05:10:37;100677.28;;;18.94
71428;BMP280;59246;59.102;37.928;2022-07-01T05:13:03;100671.91;;;18.94
71428;BMP280;59246;59.102;37.928;2022-07-01T05:15:29;100676.50;;;18.93
71428;BMP280;59246;59.102;37.928;2022-07-01T05:17:55;100677.28;;;18.94
71428;BMP280;59246;59.102;37.928;2022-07-01T05:20:39;100681.41;;;19.00
71428;BMP280;59246;59.102;37.928;2022-07-01T05:23:23;100677.75;;;19.04
71428;BMP280;59246;59.102;37.928;2022-07-01T05:25:49;100687.56;;;19.09
71428;BMP280;59246;59.102;37.928;2022-07-01T05:28:15;100683.91;;;19.14
71428;BMP280;59246;59.102;37.928;2022-07-01T05:30:40;100678.03;;;19.20
71428;BMP280;59246;59.102;37.928;2022-07-01T05:33:06;100681.78;;;19.28
71428;BMP280;59246;59.102;37.928;2022-07-01T05:35:32;100682.09;;;19.35
71428;BMP280;59246;59.102;37.928;2022-07-01T05:37:57;100691.13;;;19.39
71428;BMP280;59246;59.102;37.928;2022-07-01T05:40:24;100694.88;;;19.47
71428;BMP280;59246;59.102;37.928;2022-07-01T05:42:51;100697.69;;;19.51
71428;BMP280;59246;59.102;37.928;2022-07-01T05:45:18;100694.69;;;19.52
71428;BMP280;59246;59.102;37.928;2022-07-01T05:47:43;100698.66;;;19.55
71428;BMP280;59246;59.102;37.928;2022-07-01T05:50:09;100701.50;;;19.58
71428;BMP280;59246;59.102;37.928;2022-07-01T05:52:35;100701.97;;;19.60
71428;BMP280;59246;59.102;37.928;2022-07-01T05:55:01;100706.06;;;19.66
71428;BMP280;59246;59.102;37.928;2022-07-01T05:57:27;100696.53;;;19.69
71428;BMP280;59246;59.102;37.928;2022-07-01T05:59:52;100694.63;;;19.69
71428;BMP280;59246;59.102;37.928;2022-07-01T06:02:18;100697.78;;;19.72
71428;BMP280;59246;59.102;37.928;2022-07-01T06:04:44;100699.03;;;19.74
71428;BMP280;59246;59.102;37.928;2022-07-01T06:07:10;100700.75;;;19.79
71428;BMP280;59246;59.102;37.928;2022-07-01T06:09:39;100699.00;;;19.83
71428;BMP280;59246;59.102;37.928;2022-07-01T06:12:05;100703.28;;;19.84
71428;BMP280;59246;59.102;37.928;2022-07-01T06:14:31;100709.91;;;19.86
71428;BMP280;59246;59.102;37.928;2022-07-01T06:16:57;100706.22;;;19.91
71428;BMP280;59246;59.102;37.928;2022-07-01T06:19:23;100714.31;;;19.91
71428;BMP280;59246;59.102;37.928;2022-07-01T06:21:49;100718.28;;;19.94
71428;BMP280;59246;59.102;37.928;2022-07-01T06:24:15;100717.31;;;19.98
71428;BMP280;59246;59.102;37.928;2022-07-01T06:26:40;100717.56;;;20.05
71428;BMP280;59246;59.102;37.928;2022-07-01T06:29:06;100716.44;;;20.15
71428;BMP280;59246;59.102;37.928;2022-07-01T06:31:32;100717.34;;;20.19
71428;BMP280;59246;59.102;37.928;2022-07-01T06:34:01;100710.84;;;20.20
71428;BMP280;59246;59.102;37.928;2022-07-01T06:36:27;100713.19;;;20.22
71428;BMP280;59246;59.102;37.928;2022-07-01T06:38:53;100721.75;;;20.24
71428;BMP280;59246;59.102;37.928;2022-07-01T06:41:18;100719.97;;;20.28
71428;BMP280;59246;59.102;37.928;2022-07-01T06:44:00;100712.19;;;20.26
71428;BMP280;59246;59.102;37.928;2022-07-01T06:46:28;100713.00;;;20.27
71428;BMP280;59246;59.102;37.928;2022-07-01T06:48:54;100713.81;;;20.27
71428;BMP280;59246;59.102;37.928;2022-07-01T06:51:21;100714.25;;;20.29
71428;BMP280;59246;59.102;37.928;2022-07-01T06:53:47;100716.28;;;20.33
71428;BMP280;59246;59.102;37.928;2022-07-01T06:56:16;100716.59;;;20.52
71428;BMP280;59246;59.102;37.928;2022-07-01T06:59:01;100715.97;;;20.55
71428;BMP280;59246;59.102;37.928;2022-07-01T07:02:44;100715.06;;;20.51
71428;BMP280;59246;59.102;37.928;2022-07-01T07:06:27;100719.97;;;20.49
71428;BMP280;59246;59.102;37.928;2022-07-01T07:21:13;100731.63;;;20.41
71428;BMP280;59246;59.102;37.928;2022-07-01T07:24:48;100735.63;;;20.35
71428;BMP280;59246;59.102;37.928;2022-07-01T07:27:14;100723.72;;;20.36
71428;BMP280;59246;59.102;37.928;2022-07-01T07:29:40;100732.94;;;20.35
71428;BMP280;59246;59.102;37.928;2022-07-01T07:32:06;100741.16;;;20.38
71428;BMP280;59246;59.102;37.928;2022-07-01T07:34:32;100750.63;;;20.44
71428;BMP280;59246;59.102;37.928;2022-07-01T07:36:57;100745.72;;;20.46
71428;BMP280;59246;59.102;37.928;2022-07-01T07:39:23;100755.22;;;20.44
71428;BMP280;59246;59.102;37.928;2022-07-01T07:41:48;100752.53;;;20.44
71428;BMP280;59246;59.102;37.928;2022-07-01T07:44:15;100749.78;;;20.52
71428;BMP280;59246;59.102;37.928;2022-07-01T07:46:41;100761.63;;;20.60
71428;BMP280;59246;59.102;37.928;2022-07-01T07:49:07;100752.41;;;20.61
71428;BMP280;59246;59.102;37.928;2022-07-01T07:51:33;100758.94;;;20.60
71428;BMP280;59246;59.102;37.928;2022-07-01T07:53:59;100757.34;;;20.59
71428;BMP280;59246;59.102;37.928;2022-07-01T07:56:26;100762.63;;;20.56
71428;BMP280;59246;59.102;37.928;2022-07-01T07:58:52;100762.00;;;20.50
71428;BMP280;59246;59.102;37.928;2022-07-01T08:01:18;100763.59;;;20.51
71428;BMP280;59246;59.102;37.928;2022-07-01T08:03:43;100752.47;;;20.52
71428;BMP280;59246;59.102;37.928;2022-07-01T08:06:10;100754.66;;;20.59
71428;BMP280;59246;59.102;37.928;2022-07-01T08:08:36;100750.44;;;20.70
71428;BMP280;59246;59.102;37.928;2022-07-01T08:11:02;100756.09;;;20.78
71428;BMP280;59246;59.102;37.928;2022-07-01T08:13:28;100747.78;;;20.83
71428;BMP280;59246;59.102;37.928;2022-07-01T08:15:54;100754.88;;;20.87
71428;BMP280;59246;59.102;37.928;2022-07-01T08:18:20;100754.38;;;20.94
71428;BMP280;59246;59.102;37.928;2022-07-01T08:20:46;100756.06;;;20.99
71428;BMP280;59246;59.102;37.928;2022-07-01T08:23:12;100754.72;;;21.05
71428;BMP280;59246;59.102;37.928;2022-07-01T08:25:39;100757.88;;;21.07
71428;BMP280;59246;59.102;37.928;2022-07-01T08:28:05;100751.47;;;21.11
71428;BMP280;59246;59.102;37.928;2022-07-01T08:30:31;100758.66;;;21.07
71428;BMP280;59246;59.102;37.928;2022-07-01T08:32:57;100755.50;;;21.05
71428;BMP280;59246;59.102;37.928;2022-07-01T08:35:23;100756.44;;;21.09
71428;BMP280;59246;59.102;37.928;2022-07-01T08:37:49;100751.03;;;21.09
71428;BMP280;59246;59.102;37.928;2022-07-01T08:40:14;100759.34;;;21.04
71428;BMP280;59246;59.102;37.928;2022-07-01T08:42:40;100754.06;;;21.08
71428;BMP280;59246;59.102;37.928;2022-07-01T08:45:08;100757.53;;;21.08
71428;BMP280;59246;59.102;37.928;2022-07-01T08:47:34;100747.66;;;21.12
71428;BMP280;59246;59.102;37.928;2022-07-01T08:50:13;100752.06;;;21.17
71428;BMP280;59246;59.102;37.928;2022-07-01T08:52:39;100752.97;;;21.21
71428;BMP280;59246;59.102;37.928;2022-07-01T08:55:05;100745.47;;;21.27
71428;BMP280;59246;59.102;37.928;2022-07-01T08:57:31;100750.19;;;21.30
71428;BMP280;59246;59.102;37.928;2022-07-01T09:00:02;100749.50;;;21.33
71428;BMP280;59246;59.102;37.928;2022-07-01T09:02:52;100749.78;;;21.40
71428;BMP280;59246;59.102;37.928;2022-07-01T09:05:20;100758.06;;;21.35
71428;BMP280;59246;59.102;37.928;2022-07-01T09:07:46;100754.25;;;21.36
71428;BMP280;59246;59.102;37.928;2022-07-01T09:10:14;100744.91;;;21.33
71428;BMP280;59246;59.102;37.928;2022-07-01T09:12:43;100748.59;;;21.29
71428;BMP280;59246;59.102;37.928;2022-07-01T09:15:29;100743.47;;;21.36
71428;BMP280;59246;59.102;37.928;2022-07-01T09:17:57;100747.72;;;21.37
71428;BMP280;59246;59.102;37.928;2022-07-01T09:20:32;100758.19;;;21.39
71428;BMP280;59246;59.102;37.928;2022-07-01T09:23:06;100742.78;;;21.39
71428;BMP280;59246;59.102;37.928;2022-07-01T09:25:35;100745.25;;;21.44
71428;BMP280;59246;59.102;37.928;2022-07-01T09:28:22;100737.72;;;21.50
71428;BMP280;59246;59.102;37.928;2022-07-01T09:30:53;100728.38;;;21.47
71428;BMP280;59246;59.102;37.928;2022-07-01T09:33:22;100740.31;;;21.46
71428;BMP280;59246;59.102;37.928;2022-07-01T09:35:49;100743.94;;;21.50
71428;BMP280;59246;59.102;37.928;2022-07-01T09:38:20;100736.59;;;21.51
71428;BMP280;59246;59.102;37.928;2022-07-01T09:40:57;100733.91;;;21.51
71428;BMP280;59246;59.102;37.928;2022-07-01T09:45:55;100738.06;;;21.48
71428;BMP280;59246;59.102;37.928;2022-07-01T09:48:23;100736.94;;;21.49
71428;BMP280;59246;59.102;37.928;2022-07-01T09:50:49;100730.09;;;21.52
71428;BMP280;59246;59.102;37.928;2022-07-01T09:53:16;100733.00;;;21.59
71428;BMP280;59246;59.102;37.928;2022-07-01T09:55:43;100736.72;;;21.67
71428;BMP280;59246;59.102;37.928;2022-07-01T09:58:09;100726.94;;;21.74
71428;BMP280;59246;59.102;37.928;2022-07-01T10:00:37;100722.63;;;21.86
71428;BMP280;59246;59.102;37.928;2022-07-01T10:03:04;100727.59;;;21.96
71428;BMP280;59246;59.102;37.928;2022-07-01T10:05:36;100729.38;;;22.16
71428;BMP280;59246;59.102;37.928;2022-07-01T10:08:11;100729.16;;;22.37
71428;BMP280;59246;59.102;37.928;2022-07-01T10:13:18;100732.00;;;22.69
71428;BMP280;59246;59.102;37.928;2022-07-01T10:15:47;100726.19;;;22.83
71428;BMP280;59246;59.102;37.928;2022-07-01T10:18:24;100738.97;;;22.98
71428;BMP280;59246;59.102;37.928;2022-07-01T10:20:51;100737.13;;;23.18
71428;BMP280;59246;59.102;37.928;2022-07-01T10:23:20;100728.75;;;23.39
71428;BMP280;59246;59.102;37.928;2022-07-01T10:25:48;100736.78;;;23.52
71428;BMP280;59246;59.102;37.928;2022-07-01T10:30:51;100729.56;;;23.75
71428;BMP280;59246;59.102;37.928;2022-07-01T10:33:42;100729.53;;;23.91
71428;BMP280;59246;59.102;37.928;2022-07-01T10:41:54;100727.44;;;24.82
71428;BMP280;59246;59.102;37.928;2022-07-01T10:44:25;100731.81;;;25.13
71428;BMP280;59246;59.102;37.928;2022-07-01T10:46:55;100743.09;;;25.38
71428;BMP280;59246;59.102;37.928;2022-07-01T10:52:14;100736.84;;;25.64
71428;BMP280;59246;59.102;37.928;2022-07-01T10:59:42;100714.34;;;26.31
71428;BMP280;59246;59.102;37.928;2022-07-01T11:12:08;100724.78;;;27.14
71428;BMP280;59246;59.102;37.928;2022-07-01T11:14:41;100722.50;;;27.16
71428;BMP280;59246;59.102;37.928;2022-07-01T11:17:08;100708.91;;;27.27
71428;BMP280;59246;59.102;37.928;2022-07-01T11:19:35;100712.53;;;27.45
71428;BMP280;59246;59.102;37.928;2022-07-01T11:22:01;100716.50;;;27.62
71428;BMP280;59246;59.102;37.928;2022-07-01T11:24:28;100722.41;;;27.79
71428;BMP280;59246;59.102;37.928;2022-07-01T11:27:07;100713.53;;;27.96
71428;BMP280;59246;59.102;37.928;2022-07-01T11:29:33;100717.03;;;28.07
71428;BMP280;59246;59.102;37.928;2022-07-01T11:31:59;100711.63;;;28.18
71428;BMP280;59246;59.102;37.928;2022-07-01T11:34:29;100720.59;;;28.33
71428;BMP280;59246;59.102;37.928;2022-07-01T11:36:56;100722.97;;;28.27
71428;BMP280;59246;59.102;37.928;2022-07-01T11:39:40;100714.41;;;28.47
71428;BMP280;59246;59.102;37.928;2022-07-01T11:42:09;100721.53;;;29.79
71428;BMP280;59246;59.102;37.928;2022-07-01T11:44:42;100712.03;;;32.77
71428;BMP280;59246;59.102;37.928;2022-07-01T11:47:10;100717.94;;;35.55
71428;BMP280;59246;59.102;37.928;2022-07-01T11:49:52;100712.69;;;38.28
71428;BMP280;59246;59.102;37.928;2022-07-01T11:52:20;100704.34;;;40.79
71428;BMP280;59246;59.102;37.928;2022-07-01T11:54:48;100714.19;;;42.40
71428;BMP280;59246;59.102;37.928;2022-07-01T11:57:21;100711.91;;;43.52
71428;BMP280;59246;59.102;37.928;2022-07-01T11:59:50;100711.59;;;44.68
71428;BMP280;59246;59.102;37.928;2022-07-01T12:02:17;100704.38;;;45.66
71428;BMP280;59246;59.102;37.928;2022-07-01T12:04:44;100704.38;;;45.66
71428;BMP280;59246;59.102;37.928;2022-07-01T12:07:12;100708.75;;;46.84
71428;BMP280;59246;59.102;37.928;2022-07-01T12:09:38;100706.69;;;47.80
71428;BMP280;59246;59.102;37.928;2022-07-01T12:12:05;100719.72;;;49.26
71428;BMP280;59246;59.102;37.928;2022-07-01T12:14:33;100719.72;;;49.26
71428;BMP280;59246;59.102;37.928;2022-07-01T12:17:05;100717.00;;;49.62
71428;BMP280;59246;59.102;37.928;2022-07-01T12:19:42;100713.47;;;50.33
71428;BMP280;59246;59.102;37.928;2022-07-01T12:22:10;100713.00;;;51.04
71428;BMP280;59246;59.102;37.928;2022-07-01T12:24:36;100716.56;;;51.65
71428;BMP280;59246;59.102;37.928;2022-07-01T12:27:03;100713.00;;;52.05
71428;BMP280;59246;59.102;37.928;2022-07-01T12:29:53;100708.19;;;53.05
71428;BMP280;59246;59.102;37.928;2022-07-01T12:32:24;100708.19;;;53.05
71428;BMP280;59246;59.102;37.928;2022-07-01T12:34:58;100712.38;;;53.39
71428;BMP280;59246;59.102;37.928;2022-07-01T12:37:34;100708.47;;;53.51
71428;BMP280;59246;59.102;37.928;2022-07-01T12:40:02;100691.50;;;53.44
71428;BMP280;59246;59.102;37.928;2022-07-01T12:42:42;100718.22;;;53.58
71428;BMP280;59246;59.102;37.928;2022-07-01T12:45:11;100698.75;;;53.99
71428;BMP280;59246;59.102;37.928;2022-07-01T12:47:43;100687.00;;;54.39
71428;BMP280;59246;59.102;37.928;2022-07-01T12:52:38;100694.84;;;54.21
71428;BMP280;59246;59.102;37.928;2022-07-01T12:55:17;100696.47;;;53.87
71428;BMP280;59246;59.102;37.928;2022-07-01T12:57:43;100699.00;;;53.66
71428;BMP280;59246;59.102;37.928;2022-07-01T13:00:11;100699.31;;;54.14
71428;BMP280;59246;59.102;37.928;2022-07-01T13:02:37;100699.31;;;54.14
71428;BMP280;59246;59.102;37.928;2022-07-01T13:05:03;100699.78;;;54.57
71428;BMP280;59246;59.102;37.928;2022-07-01T13:07:28;100696.66;;;54.26
71428;BMP280;59246;59.102;37.928;2022-07-01T13:09:54;100699.00;;;54.47
71428;BMP280;59246;59.102;37.928;2022-07-01T13:12:21;100699.00;;;54.47
71428;BMP280;59246;59.102;37.928;2022-07-01T13:14:47;100692.28;;;54.52
71428;BMP280;59246;59.102;37.928;2022-07-01T13:17:13;100703.31;;;53.84
71428;BMP280;59246;59.102;37.928;2022-07-01T13:19:39;100713.94;;;53.84
71428;BMP280;59246;59.102;37.928;2022-07-01T13:22:04;100713.94;;;53.84
71428;BMP280;59246;59.102;37.928;2022-07-01T13:24:30;100694.44;;;54.34
71428;BMP280;59246;59.102;37.928;2022-07-01T13:26:57;100700.31;;;54.36
71428;BMP280;59246;59.102;37.928;2022-07-01T13:29:23;100697.94;;;54.42
71428;BMP280;59246;59.102;37.928;2022-07-01T13:31:48;100699.66;;;54.65
71428;BMP280;59246;59.102;37.928;2022-07-01T13:34:14;100701.34;;;54.77
71428;BMP280;59246;59.102;37.928;2022-07-01T13:36:40;100698.94;;;54.74
71428;BMP280;59246;59.102;37.928;2022-07-01T13:39:06;100701.06;;;54.83
71428;BMP280;59246;59.102;37.928;2022-07-01T13:41:33;100703.97;;;54.19
71428;BMP280;59246;59.102;37.928;2022-07-01T13:43:58;100693.91;;;53.82
71428;BMP280;59246;59.102;37.928;2022-07-01T13:46:24;100698.59;;;54.23
71428;BMP280;59246;59.102;37.928;2022-07-01T13:48:50;100700.78;;;54.42
71428;BMP280;59246;59.102;37.928;2022-07-01T13:51:15;100695.56;;;54.48
71428;BMP280;59246;59.102;37.928;2022-07-01T13:53:41;100709.44;;;54.08
71428;BMP280;59246;59.102;37.928;2022-07-01T13:56:07;100696.44;;;54.41
71428;BMP280;59246;59.102;37.928;2022-07-01T13:58:33;100693.03;;;54.16
71428;BMP280;59246;59.102;37.928;2022-07-01T14:00:58;100692.31;;;51.87
71428;BMP280;59246;59.102;37.928;2022-07-01T14:03:24;100692.31;;;51.87
71428;BMP280;59246;59.102;37.928;2022-07-01T14:05:50;100701.16;;;44.63
71428;BMP280;59246;59.102;37.928;2022-07-01T14:08:16;100694.22;;;41.84
71428;BMP280;59246;59.102;37.928;2022-07-01T14:10:42;100695.34;;;39.66
71428;BMP280;59246;59.102;37.928;2022-07-01T14:13:10;100695.16;;;39.31
71428;BMP280;59246;59.102;37.928;2022-07-01T14:15:36;100701.84;;;38.49
71428;BMP280;59246;59.102;37.928;2022-07-01T14:18:02;100695.50;;;36.89
71428;BMP280;59246;59.102;37.928;2022-07-01T14:20:28;100700.06;;;35.47
71428;BMP280;59246;59.102;37.928;2022-07-01T14:22:54;100710.28;;;34.25
71428;BMP280;59246;59.102;37.928;2022-07-01T14:25:21;100699.59;;;33.29
71428;BMP280;59246;59.102;37.928;2022-07-01T14:27:47;100700.84;;;32.44
71428;BMP280;59246;59.102;37.928;2022-07-01T14:30:15;100697.38;;;31.66
71428;BMP280;59246;59.102;37.928;2022-07-01T14:32:42;100702.19;;;30.97
71428;BMP280;59246;59.102;37.928;2022-07-01T14:35:08;100701.50;;;30.48
71428;BMP280;59246;59.102;37.928;2022-07-01T14:37:34;100700.25;;;30.04
71428;BMP280;59246;59.102;37.928;2022-07-01T14:40:03;100688.31;;;29.69